Decoded Metar for KFLG (FLAGSTAFF in AZ, USA) (IATA:FLG) | Meteo·Mobile Aviation Weather
aviador You're here:

KFLG Decoded Metar

FLAGSTAFF in AZ, USA
Report Time2018-08-21 18:57:00
UTC Time2018-08-21 19:56:29
Flight Rules vfr VFR
Wind360° at 08 kt
W.Decomp.*RWY 03: 5.8 kt HW 5.6 kt LCW
Visibility9999 m
Phenomena:N/A
Clouds:Few 080 Hf
Scattered 090 Hf
Broken 110 Hf
Expected CloudBase > 1,200 ft AGL from Temp-Dew spread
Ceiling11,000 ft
Temp15°C (ISA +14)
Dew Point12°C (82% RH)
AAT12.7°C
QNH1027 hPa
Density Alt8,356 ft
Elevation7,001 ft
Report Wrong Elevation
Raw Report
KFLG 211857Z 36008KT 10SM FEW080 SCT090 BKN110 15/12 A3034 RMK AO2
RAE37 PRESFR SLP192 P0003 T01500122=

Extra information for KFLG:More info

Metar Taf Metar & Taf Last 4 Metars F.Rules Stats Wind Profile Meteogram Temp Stats Airport Information Weather charts Add Link Nearby VenuesMetar ALERT Operation Metar Decoded Social comments

AIRNAV info for KFLG